sensor_id;sensor_type;location;lat;lon;timestamp;temperature;humidity
12885;DHT22;6510;51.362;7.370;2023-10-08T00:01:17;17.00;99.90
12885;DHT22;6510;51.362;7.370;2023-10-08T00:03:43;17.10;99.90
12885;DHT22;6510;51.362;7.370;2023-10-08T00:06:19;17.10;99.90
12885;DHT22;6510;51.362;7.370;2023-10-08T00:08:46;17.00;99.90
12885;DHT22;6510;51.362;7.370;2023-10-08T00:11:13;17.00;99.90
12885;DHT22;6510;51.362;7.370;2023-10-08T00:13:41;17.00;99.90
12885;DHT22;6510;51.362;7.370;2023-10-08T00:16:08;17.00;99.90
12885;DHT22;6510;51.362;7.370;2023-10-08T00:18:35;17.00;99.90
12885;DHT22;6510;51.362;7.370;2023-10-08T00:21:05;16.90;99.90
12885;DHT22;6510;51.362;7.370;2023-10-08T00:23:37;16.90;99.90
12885;DHT22;6510;51.362;7.370;2023-10-08T00:26:22;16.90;99.90
12885;DHT22;6510;51.362;7.370;2023-10-08T00:29:02;16.90;99.90
12885;DHT22;6510;51.362;7.370;2023-10-08T00:31:47;16.90;99.90
12885;DHT22;6510;51.362;7.370;2023-10-08T00:34:15;16.80;99.90
12885;DHT22;6510;51.362;7.370;2023-10-08T00:36:44;16.80;99.90
12885;DHT22;6510;51.362;7.370;2023-10-08T00:39:12;16.80;99.90
12885;DHT22;6510;51.362;7.370;2023-10-08T00:41:48;16.80;99.90
12885;DHT22;6510;51.362;7.370;2023-10-08T00:44:15;16.70;99.90
12885;DHT22;6510;51.362;7.370;2023-10-08T00:47:04;16.70;99.90
12885;DHT22;6510;51.362;7.370;2023-10-08T00:49:30;16.60;99.90
12885;DHT22;6510;51.362;7.370;2023-10-08T00:52:17;16.60;99.90
12885;DHT22;6510;51.362;7.370;2023-10-08T00:54:43;16.60;99.90
12885;DHT22;6510;51.362;7.370;2023-10-08T00:57:30;16.60;99.90
12885;DHT22;6510;51.362;7.370;2023-10-08T00:59:56;16.60;99.90
12885;DHT22;6510;51.362;7.370;2023-10-08T01:02:28;16.60;99.90
12885;DHT22;6510;51.362;7.370;2023-10-08T01:05:02;16.50;99.90
12885;DHT22;6510;51.362;7.370;2023-10-08T01:07:28;16.50;99.90
12885;DHT22;6510;51.362;7.370;2023-10-08T01:09:56;16.50;99.90
12885;DHT22;6510;51.362;7.370;2023-10-08T01:12:25;16.50;99.90
12885;DHT22;6510;51.362;7.370;2023-10-08T01:15:00;16.50;99.90
12885;DHT22;6510;51.362;7.370;2023-10-08T01:17:50;16.50;99.90
12885;DHT22;6510;51.362;7.370;2023-10-08T01:20:29;16.50;99.90
12885;DHT22;6510;51.362;7.370;2023-10-08T01:23:06;16.40;99.90
12885;DHT22;6510;51.362;7.370;2023-10-08T01:25:36;16.40;99.90
12885;DHT22;6510;51.362;7.370;2023-10-08T01:28:03;16.40;99.90
12885;DHT22;6510;51.362;7.370;2023-10-08T01:30:36;16.30;99.90
12885;DHT22;6510;51.362;7.370;2023-10-08T01:33:08;16.30;99.90
12885;DHT22;6510;51.362;7.370;2023-10-08T01:35:47;16.30;99.90
12885;DHT22;6510;51.362;7.370;2023-10-08T01:38:14;16.20;99.90
12885;DHT22;6510;51.362;7.370;2023-10-08T01:40:41;16.20;99.90
12885;DHT22;6510;51.362;7.370;2023-10-08T01:43:07;16.30;99.90
12885;DHT22;6510;51.362;7.370;2023-10-08T01:45:36;16.30;99.90
12885;DHT22;6510;51.362;7.370;2023-10-08T01:48:02;16.40;99.90
12885;DHT22;6510;51.362;7.370;2023-10-08T01:50:28;16.50;99.90
12885;DHT22;6510;51.362;7.370;2023-10-08T01:52:55;16.50;99.90
12885;DHT22;6510;51.362;7.370;2023-10-08T01:55:21;16.50;99.90
12885;DHT22;6510;51.362;7.370;2023-10-08T01:57:49;16.40;99.90
12885;DHT22;6510;51.362;7.370;2023-10-08T02:00:17;16.40;99.90
12885;DHT22;6510;51.362;7.370;2023-10-08T02:02:51;16.40;99.90
12885;DHT22;6510;51.362;7.370;2023-10-08T02:05:17;16.40;99.90
12885;DHT22;6510;51.362;7.370;2023-10-08T02:07:45;16.40;99.90
12885;DHT22;6510;51.362;7.370;2023-10-08T02:10:11;16.30;99.90
12885;DHT22;6510;51.362;7.370;2023-10-08T02:12:40;16.30;99.90
12885;DHT22;6510;51.362;7.370;2023-10-08T02:15:09;16.30;99.90
12885;DHT22;6510;51.362;7.370;2023-10-08T02:17:37;16.20;99.90
12885;DHT22;6510;51.362;7.370;2023-10-08T02:20:03;16.20;99.90
12885;DHT22;6510;51.362;7.370;2023-10-08T02:22:31;16.20;99.90
12885;DHT22;6510;51.362;7.370;2023-10-08T02:24:58;16.20;99.90
12885;DHT22;6510;51.362;7.370;2023-10-08T02:27:27;16.20;99.90
12885;DHT22;6510;51.362;7.370;2023-10-08T02:29:53;16.20;99.90
12885;DHT22;6510;51.362;7.370;2023-10-08T02:32:20;16.20;99.90
12885;DHT22;6510;51.362;7.370;2023-10-08T02:34:48;16.20;99.90
12885;DHT22;6510;51.362;7.370;2023-10-08T02:37:13;16.20;99.90
12885;DHT22;6510;51.362;7.370;2023-10-08T02:39:40;16.10;99.90
12885;DHT22;6510;51.362;7.370;2023-10-08T02:42:06;16.00;99.90
12885;DHT22;6510;51.362;7.370;2023-10-08T02:44:36;15.90;99.90
12885;DHT22;6510;51.362;7.370;2023-10-08T02:47:10;15.80;99.90
12885;DHT22;6510;51.362;7.370;2023-10-08T02:49:53;15.70;99.90
12885;DHT22;6510;51.362;7.370;2023-10-08T02:52:19;15.70;99.90
12885;DHT22;6510;51.362;7.370;2023-10-08T02:54:46;15.60;99.90
12885;DHT22;6510;51.362;7.370;2023-10-08T02:57:11;15.50;99.90
12885;DHT22;6510;51.362;7.370;2023-10-08T02:59:40;15.50;99.90
12885;DHT22;6510;51.362;7.370;2023-10-08T03:02:10;15.50;99.90
12885;DHT22;6510;51.362;7.370;2023-10-08T03:04:44;15.50;99.90
12885;DHT22;6510;51.362;7.370;2023-10-08T03:07:12;15.50;99.90
12885;DHT22;6510;51.362;7.370;2023-10-08T03:09:50;15.50;99.90
12885;DHT22;6510;51.362;7.370;2023-10-08T03:12:16;15.50;99.90
12885;DHT22;6510;51.362;7.370;2023-10-08T03:14:43;15.40;99.90
12885;DHT22;6510;51.362;7.370;2023-10-08T03:17:30;15.40;99.90
12885;DHT22;6510;51.362;7.370;2023-10-08T03:20:00;15.40;99.90
12885;DHT22;6510;51.362;7.370;2023-10-08T03:22:48;15.40;99.90
12885;DHT22;6510;51.362;7.370;2023-10-08T03:25:15;15.40;99.90
12885;DHT22;6510;51.362;7.370;2023-10-08T03:27:44;15.40;99.90
12885;DHT22;6510;51.362;7.370;2023-10-08T03:30:10;15.40;99.90
12885;DHT22;6510;51.362;7.370;2023-10-08T03:32:40;15.50;99.90
12885;DHT22;6510;51.362;7.370;2023-10-08T03:35:08;15.50;99.90
12885;DHT22;6510;51.362;7.370;2023-10-08T03:37:36;15.60;99.90
12885;DHT22;6510;51.362;7.370;2023-10-08T03:40:11;15.60;99.90
12885;DHT22;6510;51.362;7.370;2023-10-08T03:42:58;15.60;99.90
12885;DHT22;6510;51.362;7.370;2023-10-08T03:45:24;15.60;99.90
12885;DHT22;6510;51.362;7.370;2023-10-08T03:48:08;15.60;99.90
12885;DHT22;6510;51.362;7.370;2023-10-08T03:50:40;15.60;99.90
12885;DHT22;6510;51.362;7.370;2023-10-08T03:53:07;15.60;99.90
12885;DHT22;6510;51.362;7.370;2023-10-08T03:55:40;15.50;99.90
12885;DHT22;6510;51.362;7.370;2023-10-08T03:58:09;15.50;99.90
12885;DHT22;6510;51.362;7.370;2023-10-08T04:00:55;15.40;99.90
12885;DHT22;6510;51.362;7.370;2023-10-08T04:03:43;15.40;99.90
12885;DHT22;6510;51.362;7.370;2023-10-08T04:06:21;15.40;99.90
12885;DHT22;6510;51.362;7.370;2023-10-08T04:09:12;15.40;99.90
12885;DHT22;6510;51.362;7.370;2023-10-08T04:11:43;15.30;99.90
12885;DHT22;6510;51.362;7.370;2023-10-08T04:14:25;15.30;99.90
12885;DHT22;6510;51.362;7.370;2023-10-08T04:16:52;15.30;99.90
12885;DHT22;6510;51.362;7.370;2023-10-08T04:19:19;15.30;99.90
12885;DHT22;6510;51.362;7.370;2023-10-08T04:21:45;15.20;99.90
12885;DHT22;6510;51.362;7.370;2023-10-08T04:24:19;15.30;99.90
12885;DHT22;6510;51.362;7.370;2023-10-08T04:26:45;15.30;99.90
12885;DHT22;6510;51.362;7.370;2023-10-08T04:29:11;15.30;99.90
12885;DHT22;6510;51.362;7.370;2023-10-08T04:31:42;15.30;99.90
12885;DHT22;6510;51.362;7.370;2023-10-08T04:34:12;15.30;99.90
12885;DHT22;6510;51.362;7.370;2023-10-08T04:36:43;15.30;99.90
12885;DHT22;6510;51.362;7.370;2023-10-08T04:39:20;15.30;99.90
12885;DHT22;6510;51.362;7.370;2023-10-08T04:41:52;15.20;99.90
12885;DHT22;6510;51.362;7.370;2023-10-08T04:44:24;15.10;99.90
12885;DHT22;6510;51.362;7.370;2023-10-08T04:46:51;15.10;99.90
12885;DHT22;6510;51.362;7.370;2023-10-08T04:49:19;15.10;99.90
12885;DHT22;6510;51.362;7.370;2023-10-08T04:51:58;15.10;99.90
12885;DHT22;6510;51.362;7.370;2023-10-08T04:54:28;15.10;99.90
12885;DHT22;6510;51.362;7.370;2023-10-08T04:57:00;15.10;99.90
12885;DHT22;6510;51.362;7.370;2023-10-08T04:59:30;15.10;99.90
12885;DHT22;6510;51.362;7.370;2023-10-08T05:02:05;15.20;99.90
12885;DHT22;6510;51.362;7.370;2023-10-08T05:04:59;15.20;99.90
12885;DHT22;6510;51.362;7.370;2023-10-08T05:07:37;15.20;99.90
12885;DHT22;6510;51.362;7.370;2023-10-08T05:10:25;15.20;99.90
12885;DHT22;6510;51.362;7.370;2023-10-08T05:12:52;15.20;99.90
12885;DHT22;6510;51.362;7.370;2023-10-08T05:15:30;15.20;99.90
12885;DHT22;6510;51.362;7.370;2023-10-08T05:18:01;15.20;99.90
12885;DHT22;6510;51.362;7.370;2023-10-08T05:20:42;15.10;99.90
12885;DHT22;6510;51.362;7.370;2023-10-08T05:23:15;15.20;99.90
12885;DHT22;6510;51.362;7.370;2023-10-08T05:26:03;15.20;99.90
12885;DHT22;6510;51.362;7.370;2023-10-08T05:28:31;15.20;99.90
12885;DHT22;6510;51.362;7.370;2023-10-08T05:31:10;15.20;99.90
12885;DHT22;6510;51.362;7.370;2023-10-08T05:33:39;15.10;99.90
12885;DHT22;6510;51.362;7.370;2023-10-08T05:36:27;15.10;99.90
12885;DHT22;6510;51.362;7.370;2023-10-08T05:39:00;15.10;99.90
12885;DHT22;6510;51.362;7.370;2023-10-08T05:41:44;15.10;99.90
12885;DHT22;6510;51.362;7.370;2023-10-08T05:44:31;15.10;99.90
12885;DHT22;6510;51.362;7.370;2023-10-08T05:47:06;15.10;99.90
12885;DHT22;6510;51.362;7.370;2023-10-08T05:49:52;15.10;99.90
12885;DHT22;6510;51.362;7.370;2023-10-08T05:52:40;15.00;99.90
12885;DHT22;6510;51.362;7.370;2023-10-08T05:55:31;15.00;99.90
12885;DHT22;6510;51.362;7.370;2023-10-08T05:58:09;15.00;99.90
12885;DHT22;6510;51.362;7.370;2023-10-08T06:00:45;14.90;99.90
12885;DHT22;6510;51.362;7.370;2023-10-08T06:03:17;14.90;99.90
12885;DHT22;6510;51.362;7.370;2023-10-08T06:06:06;14.80;99.90
12885;DHT22;6510;51.362;7.370;2023-10-08T06:08:41;14.80;99.90
12885;DHT22;6510;51.362;7.370;2023-10-08T06:11:25;14.80;99.90
12885;DHT22;6510;51.362;7.370;2023-10-08T06:14:09;14.90;99.90
12885;DHT22;6510;51.362;7.370;2023-10-08T06:16:54;14.90;99.90
12885;DHT22;6510;51.362;7.370;2023-10-08T06:19:39;14.90;99.90
12885;DHT22;6510;51.362;7.370;2023-10-08T06:22:05;15.00;99.90
12885;DHT22;6510;51.362;7.370;2023-10-08T06:24:30;15.00;99.90
12885;DHT22;6510;51.362;7.370;2023-10-08T06:26:58;14.90;99.90
12885;DHT22;6510;51.362;7.370;2023-10-08T06:29:30;15.00;99.90
12885;DHT22;6510;51.362;7.370;2023-10-08T06:31:57;15.00;99.90
12885;DHT22;6510;51.362;7.370;2023-10-08T06:34:28;15.00;99.90
12885;DHT22;6510;51.362;7.370;2023-10-08T06:36:55;15.00;99.90
12885;DHT22;6510;51.362;7.370;2023-10-08T06:39:24;15.00;99.90
12885;DHT22;6510;51.362;7.370;2023-10-08T06:42:13;15.00;99.90
12885;DHT22;6510;51.362;7.370;2023-10-08T06:44:40;15.10;99.90
12885;DHT22;6510;51.362;7.370;2023-10-08T06:47:08;15.10;99.90
12885;DHT22;6510;51.362;7.370;2023-10-08T06:49:35;15.20;99.90
12885;DHT22;6510;51.362;7.370;2023-10-08T06:52:01;15.20;99.90
12885;DHT22;6510;51.362;7.370;2023-10-08T06:54:28;15.20;99.90
12885;DHT22;6510;51.362;7.370;2023-10-08T06:56:56;15.20;99.90
12885;DHT22;6510;51.362;7.370;2023-10-08T06:59:22;15.20;99.90
12885;DHT22;6510;51.362;7.370;2023-10-08T07:01:49;15.30;99.90
12885;DHT22;6510;51.362;7.370;2023-10-08T07:04:16;15.30;99.90
12885;DHT22;6510;51.362;7.370;2023-10-08T07:06:44;15.40;99.90
12885;DHT22;6510;51.362;7.370;2023-10-08T07:09:12;15.50;99.90
12885;DHT22;6510;51.362;7.370;2023-10-08T07:11:53;15.50;99.90
12885;DHT22;6510;51.362;7.370;2023-10-08T07:14:24;15.50;99.90
12885;DHT22;6510;51.362;7.370;2023-10-08T07:16:54;15.40;99.90
12885;DHT22;6510;51.362;7.370;2023-10-08T07:19:21;15.40;99.90
12885;DHT22;6510;51.362;7.370;2023-10-08T07:21:49;15.40;99.90
12885;DHT22;6510;51.362;7.370;2023-10-08T07:24:19;15.40;99.90
12885;DHT22;6510;51.362;7.370;2023-10-08T07:26:47;15.40;99.90
12885;DHT22;6510;51.362;7.370;2023-10-08T07:29:17;15.50;99.90
12885;DHT22;6510;51.362;7.370;2023-10-08T07:31:45;15.50;99.90
12885;DHT22;6510;51.362;7.370;2023-10-08T07:34:15;15.40;99.90
12885;DHT22;6510;51.362;7.370;2023-10-08T07:36:46;15.40;99.90
12885;DHT22;6510;51.362;7.370;2023-10-08T07:39:13;15.40;99.90
12885;DHT22;6510;51.362;7.370;2023-10-08T07:41:52;15.50;99.90
12885;DHT22;6510;51.362;7.370;2023-10-08T07:44:22;15.50;99.90
12885;DHT22;6510;51.362;7.370;2023-10-08T07:46:49;15.60;99.90
12885;DHT22;6510;51.362;7.370;2023-10-08T07:49:16;15.50;99.90
12885;DHT22;6510;51.362;7.370;2023-10-08T07:51:42;15.50;99.90
12885;DHT22;6510;51.362;7.370;2023-10-08T07:54:20;15.60;99.90
12885;DHT22;6510;51.362;7.370;2023-10-08T07:56:47;15.60;99.90
12885;DHT22;6510;51.362;7.370;2023-10-08T07:59:14;15.60;99.90
12885;DHT22;6510;51.362;7.370;2023-10-08T08:01:42;15.70;99.90
12885;DHT22;6510;51.362;7.370;2023-10-08T08:04:12;15.80;99.90
12885;DHT22;6510;51.362;7.370;2023-10-08T08:06:48;15.80;99.90
12885;DHT22;6510;51.362;7.370;2023-10-08T08:09:19;15.90;99.90
12885;DHT22;6510;51.362;7.370;2023-10-08T08:11:46;15.90;99.90
12885;DHT22;6510;51.362;7.370;2023-10-08T08:14:15;15.90;99.90
12885;DHT22;6510;51.362;7.370;2023-10-08T08:16:50;15.90;99.90
12885;DHT22;6510;51.362;7.370;2023-10-08T08:19:16;16.10;99.90
12885;DHT22;6510;51.362;7.370;2023-10-08T08:21:45;16.00;99.90
12885;DHT22;6510;51.362;7.370;2023-10-08T08:24:14;15.90;99.90
12885;DHT22;6510;51.362;7.370;2023-10-08T08:26:57;15.80;99.90
12885;DHT22;6510;51.362;7.370;2023-10-08T08:29:49;15.80;99.90
12885;DHT22;6510;51.362;7.370;2023-10-08T08:32:14;15.70;99.90
12885;DHT22;6510;51.362;7.370;2023-10-08T08:34:47;15.60;99.90
12885;DHT22;6510;51.362;7.370;2023-10-08T08:37:16;15.40;99.90
12885;DHT22;6510;51.362;7.370;2023-10-08T08:39:42;15.20;99.90
12885;DHT22;6510;51.362;7.370;2023-10-08T08:42:07;15.20;99.90
12885;DHT22;6510;51.362;7.370;2023-10-08T08:44:37;15.20;99.90
12885;DHT22;6510;51.362;7.370;2023-10-08T08:47:14;15.00;99.90
12885;DHT22;6510;51.362;7.370;2023-10-08T08:49:43;14.80;99.90
12885;DHT22;6510;51.362;7.370;2023-10-08T08:52:10;14.70;99.90
12885;DHT22;6510;51.362;7.370;2023-10-08T08:54:36;14.80;99.90
12885;DHT22;6510;51.362;7.370;2023-10-08T08:57:03;14.60;99.90
12885;DHT22;6510;51.362;7.370;2023-10-08T08:59:30;14.50;99.90
12885;DHT22;6510;51.362;7.370;2023-10-08T09:01:59;14.40;99.90
12885;DHT22;6510;51.362;7.370;2023-10-08T09:04:32;14.40;99.90
12885;DHT22;6510;51.362;7.370;2023-10-08T09:07:01;14.40;99.90
12885;DHT22;6510;51.362;7.370;2023-10-08T09:09:34;14.30;99.90
12885;DHT22;6510;51.362;7.370;2023-10-08T09:12:01;14.30;99.90
12885;DHT22;6510;51.362;7.370;2023-10-08T09:14:27;14.20;99.90
12885;DHT22;6510;51.362;7.370;2023-10-08T09:16:57;14.00;99.90
12885;DHT22;6510;51.362;7.370;2023-10-08T09:19:25;13.90;99.90
12885;DHT22;6510;51.362;7.370;2023-10-08T09:22:11;14.00;99.90
12885;DHT22;6510;51.362;7.370;2023-10-08T09:24:47;14.00;99.90
12885;DHT22;6510;51.362;7.370;2023-10-08T09:27:13;14.20;99.90
12885;DHT22;6510;51.362;7.370;2023-10-08T09:29:44;14.20;99.90
12885;DHT22;6510;51.362;7.370;2023-10-08T09:32:11;14.20;99.90
12885;DHT22;6510;51.362;7.370;2023-10-08T09:34:37;14.00;99.90
12885;DHT22;6510;51.362;7.370;2023-10-08T09:37:03;13.80;99.90
12885;DHT22;6510;51.362;7.370;2023-10-08T09:39:29;13.70;99.90
12885;DHT22;6510;51.362;7.370;2023-10-08T09:42:00;13.70;99.90
12885;DHT22;6510;51.362;7.370;2023-10-08T09:44:28;13.70;99.90
12885;DHT22;6510;51.362;7.370;2023-10-08T09:47:04;13.80;99.90
12885;DHT22;6510;51.362;7.370;2023-10-08T09:49:40;13.90;99.90
12885;DHT22;6510;51.362;7.370;2023-10-08T09:52:08;14.00;99.90
12885;DHT22;6510;51.362;7.370;2023-10-08T09:54:53;13.90;99.90
12885;DHT22;6510;51.362;7.370;2023-10-08T09:57:22;13.80;99.90
12885;DHT22;6510;51.362;7.370;2023-10-08T09:59:51;14.00;99.90
12885;DHT22;6510;51.362;7.370;2023-10-08T10:02:18;14.10;99.90
12885;DHT22;6510;51.362;7.370;2023-10-08T10:04:50;14.10;99.90
12885;DHT22;6510;51.362;7.370;2023-10-08T10:07:16;14.20;99.90
12885;DHT22;6510;51.362;7.370;2023-10-08T10:09:46;14.20;99.90
12885;DHT22;6510;51.362;7.370;2023-10-08T10:12:19;14.30;99.90
12885;DHT22;6510;51.362;7.370;2023-10-08T10:14:52;14.60;99.90
12885;DHT22;6510;51.362;7.370;2023-10-08T10:17:22;14.80;99.90
12885;DHT22;6510;51.362;7.370;2023-10-08T10:20:00;15.10;99.90
12885;DHT22;6510;51.362;7.370;2023-10-08T10:22:30;15.30;99.90
12885;DHT22;6510;51.362;7.370;2023-10-08T10:24:58;15.60;99.90
12885;DHT22;6510;51.362;7.370;2023-10-08T10:27:25;15.40;99.90
12885;DHT22;6510;51.362;7.370;2023-10-08T10:30:01;14.80;99.90
12885;DHT22;6510;51.362;7.370;2023-10-08T10:32:34;14.50;99.90
12885;DHT22;6510;51.362;7.370;2023-10-08T10:35:00;14.50;99.90
12885;DHT22;6510;51.362;7.370;2023-10-08T10:37:29;14.40;99.90
12885;DHT22;6510;51.362;7.370;2023-10-08T10:40:07;14.40;99.90
12885;DHT22;6510;51.362;7.370;2023-10-08T10:42:38;14.70;99.90
12885;DHT22;6510;51.362;7.370;2023-10-08T10:45:15;14.90;99.90
12885;DHT22;6510;51.362;7.370;2023-10-08T10:48:05;15.30;99.90
12885;DHT22;6510;51.362;7.370;2023-10-08T10:50:40;15.70;99.90
12885;DHT22;6510;51.362;7.370;2023-10-08T10:53:24;15.80;99.90
12885;DHT22;6510;51.362;7.370;2023-10-08T10:55:52;15.80;99.90
12885;DHT22;6510;51.362;7.370;2023-10-08T10:58:28;15.80;99.90
12885;DHT22;6510;51.362;7.370;2023-10-08T11:01:04;16.00;99.90
12885;DHT22;6510;51.362;7.370;2023-10-08T11:03:49;16.20;99.90
12885;DHT22;6510;51.362;7.370;2023-10-08T11:06:17;16.10;99.90
12885;DHT22;6510;51.362;7.370;2023-10-08T11:08:52;15.80;99.90
12885;DHT22;6510;51.362;7.370;2023-10-08T11:11:19;16.00;99.90
12885;DHT22;6510;51.362;7.370;2023-10-08T11:13:44;16.20;99.90
12885;DHT22;6510;51.362;7.370;2023-10-08T11:16:16;16.50;99.90
12885;DHT22;6510;51.362;7.370;2023-10-08T11:18:45;16.60;99.90
12885;DHT22;6510;51.362;7.370;2023-10-08T11:21:16;16.40;99.90
12885;DHT22;6510;51.362;7.370;2023-10-08T11:23:48;16.40;99.90
12885;DHT22;6510;51.362;7.370;2023-10-08T11:26:23;16.60;99.90
12885;DHT22;6510;51.362;7.370;2023-10-08T11:28:59;17.00;99.90
12885;DHT22;6510;51.362;7.370;2023-10-08T11:31:40;17.00;99.90
12885;DHT22;6510;51.362;7.370;2023-10-08T11:34:06;17.30;99.90
12885;DHT22;6510;51.362;7.370;2023-10-08T11:36:36;17.60;99.90
12885;DHT22;6510;51.362;7.370;2023-10-08T11:39:14;17.50;99.90
12885;DHT22;6510;51.362;7.370;2023-10-08T11:41:59;17.00;99.90
12885;DHT22;6510;51.362;7.370;2023-10-08T11:44:33;17.10;99.90
12885;DHT22;6510;51.362;7.370;2023-10-08T11:47:02;17.40;99.90
12885;DHT22;6510;51.362;7.370;2023-10-08T11:49:39;17.50;99.90
12885;DHT22;6510;51.362;7.370;2023-10-08T11:52:12;17.30;99.90
12885;DHT22;6510;51.362;7.370;2023-10-08T11:54:41;16.70;99.90
12885;DHT22;6510;51.362;7.370;2023-10-08T11:57:07;16.60;99.90
12885;DHT22;6510;51.362;7.370;2023-10-08T11:59:35;16.70;99.90
12885;DHT22;6510;51.362;7.370;2023-10-08T12:02:07;17.10;99.90
12885;DHT22;6510;51.362;7.370;2023-10-08T12:04:33;17.00;99.90
12885;DHT22;6510;51.362;7.370;2023-10-08T12:06:59;16.90;99.90
12885;DHT22;6510;51.362;7.370;2023-10-08T12:09:28;16.80;99.90
12885;DHT22;6510;51.362;7.370;2023-10-08T12:11:54;16.80;99.90
12885;DHT22;6510;51.362;7.370;2023-10-08T12:14:21;17.20;99.90
12885;DHT22;6510;51.362;7.370;2023-10-08T12:16:52;17.40;99.90
12885;DHT22;6510;51.362;7.370;2023-10-08T12:19:17;17.60;99.90
12885;DHT22;6510;51.362;7.370;2023-10-08T12:21:44;17.70;99.90
12885;DHT22;6510;51.362;7.370;2023-10-08T12:24:12;17.80;99.90
12885;DHT22;6510;51.362;7.370;2023-10-08T12:26:38;17.90;99.90
12885;DHT22;6510;51.362;7.370;2023-10-08T12:29:11;17.70;99.90
12885;DHT22;6510;51.362;7.370;2023-10-08T12:31:39;17.70;99.90
12885;DHT22;6510;51.362;7.370;2023-10-08T12:34:05;17.60;99.90
12885;DHT22;6510;51.362;7.370;2023-10-08T12:36:30;18.00;99.90
12885;DHT22;6510;51.362;7.370;2023-10-08T12:39:01;18.20;99.90
12885;DHT22;6510;51.362;7.370;2023-10-08T12:41:34;18.50;99.90
12885;DHT22;6510;51.362;7.370;2023-10-08T12:44:04;18.30;99.90
12885;DHT22;6510;51.362;7.370;2023-10-08T12:46:33;18.40;99.90
12885;DHT22;6510;51.362;7.370;2023-10-08T12:48:59;18.40;99.90
12885;DHT22;6510;51.362;7.370;2023-10-08T12:51:27;18.30;99.90
12885;DHT22;6510;51.362;7.370;2023-10-08T12:53:57;17.90;99.90
12885;DHT22;6510;51.362;7.370;2023-10-08T12:56:30;18.20;99.90
12885;DHT22;6510;51.362;7.370;2023-10-08T12:59:04;18.50;99.90
12885;DHT22;6510;51.362;7.370;2023-10-08T13:01:32;18.40;99.90
12885;DHT22;6510;51.362;7.370;2023-10-08T13:04:01;18.30;99.90
12885;DHT22;6510;51.362;7.370;2023-10-08T13:06:30;18.30;99.90
12885;DHT22;6510;51.362;7.370;2023-10-08T13:08:57;18.30;99.90
12885;DHT22;6510;51.362;7.370;2023-10-08T13:11:24;18.20;99.90
12885;DHT22;6510;51.362;7.370;2023-10-08T13:13:54;18.10;99.90
12885;DHT22;6510;51.362;7.370;2023-10-08T13:16:27;17.90;99.90
12885;DHT22;6510;51.362;7.370;2023-10-08T13:19:03;17.80;99.90
12885;DHT22;6510;51.362;7.370;2023-10-08T13:21:28;17.70;99.90
12885;DHT22;6510;51.362;7.370;2023-10-08T13:23:55;17.60;99.90
12885;DHT22;6510;51.362;7.370;2023-10-08T13:26:31;17.60;99.90
12885;DHT22;6510;51.362;7.370;2023-10-08T13:29:00;17.70;99.90
12885;DHT22;6510;51.362;7.370;2023-10-08T13:31:27;17.60;99.90
12885;DHT22;6510;51.362;7.370;2023-10-08T13:33:53;17.30;99.90
12885;DHT22;6510;51.362;7.370;2023-10-08T13:36:21;17.30;99.90
12885;DHT22;6510;51.362;7.370;2023-10-08T13:38:47;17.40;99.90
12885;DHT22;6510;51.362;7.370;2023-10-08T13:41:13;17.50;99.90
12885;DHT22;6510;51.362;7.370;2023-10-08T13:43:48;17.90;99.90
12885;DHT22;6510;51.362;7.370;2023-10-08T13:46:15;17.80;99.90
12885;DHT22;6510;51.362;7.370;2023-10-08T13:48:44;18.00;99.90
12885;DHT22;6510;51.362;7.370;2023-10-08T13:51:20;17.60;99.90
12885;DHT22;6510;51.362;7.370;2023-10-08T13:53:57;17.10;99.90
12885;DHT22;6510;51.362;7.370;2023-10-08T13:56:27;17.00;99.90
12885;DHT22;6510;51.362;7.370;2023-10-08T13:58:56;17.00;99.90
12885;DHT22;6510;51.362;7.370;2023-10-08T14:01:33;16.90;99.90
12885;DHT22;6510;51.362;7.370;2023-10-08T14:04:04;16.80;99.90
12885;DHT22;6510;51.362;7.370;2023-10-08T14:06:38;16.90;99.90
12885;DHT22;6510;51.362;7.370;2023-10-08T14:09:31;17.10;99.90
12885;DHT22;6510;51.362;7.370;2023-10-08T14:12:29;17.40;99.90
12885;DHT22;6510;51.362;7.370;2023-10-08T14:21:41;17.50;99.90
12885;DHT22;6510;51.362;7.370;2023-10-08T14:24:25;17.50;99.90
12885;DHT22;6510;51.362;7.370;2023-10-08T14:26:53;17.40;99.90
12885;DHT22;6510;51.362;7.370;2023-10-08T14:29:22;17.50;99.90
12885;DHT22;6510;51.362;7.370;2023-10-08T14:31:50;17.50;99.90
12885;DHT22;6510;51.362;7.370;2023-10-08T14:34:16;17.50;99.90
12885;DHT22;6510;51.362;7.370;2023-10-08T14:37:02;17.30;99.90
12885;DHT22;6510;51.362;7.370;2023-10-08T14:39:46;17.00;99.90
12885;DHT22;6510;51.362;7.370;2023-10-08T14:42:30;16.80;99.90
12885;DHT22;6510;51.362;7.370;2023-10-08T14:51:40;16.70;99.90
12885;DHT22;6510;51.362;7.370;2023-10-08T14:54:56;16.50;99.90
12885;DHT22;6510;51.362;7.370;2023-10-08T14:57:21;16.40;99.90
12885;DHT22;6510;51.362;7.370;2023-10-08T14:59:46;16.20;99.90
12885;DHT22;6510;51.362;7.370;2023-10-08T15:02:13;16.20;99.90
12885;DHT22;6510;51.362;7.370;2023-10-08T15:04:39;16.20;99.90
12885;DHT22;6510;51.362;7.370;2023-10-08T15:07:08;16.20;99.90
12885;DHT22;6510;51.362;7.370;2023-10-08T15:09:39;16.20;99.90
12885;DHT22;6510;51.362;7.370;2023-10-08T15:12:05;16.20;99.90
12885;DHT22;6510;51.362;7.370;2023-10-08T15:14:33;16.20;99.90
12885;DHT22;6510;51.362;7.370;2023-10-08T15:16:59;16.10;99.90
12885;DHT22;6510;51.362;7.370;2023-10-08T15:19:25;16.00;99.90
12885;DHT22;6510;51.362;7.370;2023-10-08T15:21:51;16.10;99.90
12885;DHT22;6510;51.362;7.370;2023-10-08T15:24:18;16.20;99.90
12885;DHT22;6510;51.362;7.370;2023-10-08T15:26:44;16.30;99.90
12885;DHT22;6510;51.362;7.370;2023-10-08T15:29:10;16.30;99.90
12885;DHT22;6510;51.362;7.370;2023-10-08T15:31:42;16.00;99.90
12885;DHT22;6510;51.362;7.370;2023-10-08T15:34:27;15.90;99.90
12885;DHT22;6510;51.362;7.370;2023-10-08T15:40:41;15.70;99.90
12885;DHT22;6510;51.362;7.370;2023-10-08T15:43:09;15.70;99.90
12885;DHT22;6510;51.362;7.370;2023-10-08T15:45:36;15.70;99.90
12885;DHT22;6510;51.362;7.370;2023-10-08T15:48:02;15.70;99.90
12885;DHT22;6510;51.362;7.370;2023-10-08T15:50:30;15.60;99.90
12885;DHT22;6510;51.362;7.370;2023-10-08T15:52:58;15.60;99.90
12885;DHT22;6510;51.362;7.370;2023-10-08T15:55:24;15.60;99.90
12885;DHT22;6510;51.362;7.370;2023-10-08T15:57:51;15.60;99.90
12885;DHT22;6510;51.362;7.370;2023-10-08T16:00:17;15.70;99.90
12885;DHT22;6510;51.362;7.370;2023-10-08T16:02:43;15.60;99.90
12885;DHT22;6510;51.362;7.370;2023-10-08T16:05:11;15.60;99.90
12885;DHT22;6510;51.362;7.370;2023-10-08T16:07:37;15.50;99.90
12885;DHT22;6510;51.362;7.370;2023-10-08T16:10:03;15.40;99.90
12885;DHT22;6510;51.362;7.370;2023-10-08T16:12:29;15.40;99.90
12885;DHT22;6510;51.362;7.370;2023-10-08T16:14:55;15.30;99.90
12885;DHT22;6510;51.362;7.370;2023-10-08T16:17:23;15.20;99.90
12885;DHT22;6510;51.362;7.370;2023-10-08T16:19:49;15.20;99.90
12885;DHT22;6510;51.362;7.370;2023-10-08T16:22:14;15.20;99.90
12885;DHT22;6510;51.362;7.370;2023-10-08T16:24:40;15.20;99.90
12885;DHT22;6510;51.362;7.370;2023-10-08T16:27:05;15.20;99.90
12885;DHT22;6510;51.362;7.370;2023-10-08T16:29:32;15.20;99.90